createdAt,value
2023-03-10T00:01:11.016Z,11.00
2023-03-10T00:03:37.382Z,10.98
2023-03-10T00:06:04.187Z,10.97
2023-03-10T00:08:30.677Z,11.00
2023-03-10T00:10:57.288Z,11.01
2023-03-10T00:13:23.628Z,11.06
2023-03-10T00:15:50.040Z,11.06
2023-03-10T00:18:16.387Z,11.05
2023-03-10T00:20:42.777Z,11.05
2023-03-10T00:23:09.139Z,11.01
2023-03-10T00:25:35.592Z,10.98
2023-03-10T00:28:02.047Z,11.05
2023-03-10T00:30:30.666Z,11.09
2023-03-10T00:32:58.987Z,11.10
2023-03-10T00:35:25.309Z,11.10
2023-03-10T00:37:51.711Z,11.11
2023-03-10T00:40:18.379Z,11.09
2023-03-10T00:42:44.912Z,11.10
2023-03-10T00:45:11.428Z,11.12
2023-03-10T00:47:37.806Z,11.15
2023-03-10T00:50:04.958Z,11.12
2023-03-10T00:52:32.952Z,11.05
2023-03-10T00:54:59.426Z,11.03
2023-03-10T00:57:26.605Z,11.05
2023-03-10T00:59:52.949Z,11.05
2023-03-10T01:02:20.085Z,11.09
2023-03-10T01:04:48.021Z,11.05
2023-03-10T01:07:14.535Z,11.04
2023-03-10T01:09:40.984Z,11.09
2023-03-10T01:12:07.761Z,11.11
2023-03-10T01:14:34.095Z,11.10
2023-03-10T01:17:00.671Z,11.10
2023-03-10T01:19:26.982Z,11.09
2023-03-10T01:21:53.477Z,11.09
2023-03-10T01:24:19.935Z,11.09
2023-03-10T01:26:46.333Z,11.15
2023-03-10T01:29:12.882Z,11.17
2023-03-10T01:31:40.425Z,11.16
2023-03-10T01:34:06.797Z,11.16
2023-03-10T01:36:33.102Z,11.13
2023-03-10T01:39:00.387Z,11.12
2023-03-10T01:41:27.098Z,11.04
2023-03-10T01:43:55.593Z,11.03
2023-03-10T01:46:36.512Z,11.08
2023-03-10T01:49:10.268Z,11.16
2023-03-10T01:51:39.077Z,11.16
2023-03-10T01:54:09.415Z,11.19
2023-03-10T01:56:37.555Z,11.20
2023-03-10T01:59:04.305Z,11.18
2023-03-10T02:01:32.009Z,11.14
2023-03-10T02:04:23.247Z,11.16
2023-03-10T02:06:51.280Z,11.10
2023-03-10T02:09:19.891Z,11.08
2023-03-10T02:11:48.215Z,11.07
2023-03-10T02:14:15.256Z,11.06
2023-03-10T02:16:42.146Z,11.05
2023-03-10T02:19:22.858Z,11.03
2023-03-10T02:22:03.264Z,11.08
2023-03-10T02:24:39.001Z,11.08
2023-03-10T02:27:24.741Z,11.12
2023-03-10T02:29:59.989Z,11.09
2023-03-10T02:32:30.640Z,11.09
2023-03-10T02:34:57.143Z,11.14
2023-03-10T02:37:28.122Z,11.17
2023-03-10T02:39:54.780Z,11.18
2023-03-10T02:42:24.763Z,11.19
2023-03-10T02:44:52.882Z,11.14
2023-03-10T02:47:20.087Z,11.18
2023-03-10T02:49:46.575Z,11.21
2023-03-10T02:52:39.761Z,11.17
2023-03-10T02:55:07.126Z,11.13
2023-03-10T02:57:33.594Z,11.11
2023-03-10T03:00:00.014Z,11.06
2023-03-10T03:02:26.533Z,11.08
2023-03-10T03:04:52.990Z,11.10
2023-03-10T03:07:19.489Z,11.08
2023-03-10T03:09:46.020Z,11.06
2023-03-10T03:12:12.492Z,11.03
2023-03-10T03:14:38.835Z,11.04
2023-03-10T03:17:05.461Z,11.03
2023-03-10T03:19:31.965Z,11.03
2023-03-10T03:21:58.398Z,11.05
2023-03-10T03:24:24.888Z,11.05
2023-03-10T03:26:51.206Z,11.05
2023-03-10T03:29:17.729Z,11.03
2023-03-10T03:31:44.216Z,10.99
2023-03-10T03:34:11.079Z,11.02
2023-03-10T03:36:38.067Z,11.03
2023-03-10T03:39:06.593Z,11.03
2023-03-10T03:41:33.734Z,10.99
2023-03-10T03:44:00.796Z,10.97
2023-03-10T03:46:27.459Z,10.96
2023-03-10T03:48:53.932Z,10.99
2023-03-10T03:51:20.430Z,10.93
2023-03-10T03:53:46.879Z,10.91
2023-03-10T03:56:13.335Z,10.87
2023-03-10T03:58:39.765Z,10.87
2023-03-10T04:01:06.248Z,10.80
2023-03-10T04:03:32.689Z,10.82
2023-03-10T04:05:59.104Z,10.82
2023-03-10T04:08:25.531Z,10.82
2023-03-10T04:10:53.142Z,10.83
2023-03-10T04:13:19.607Z,10.80
2023-03-10T04:15:46.038Z,10.84
2023-03-10T04:18:12.482Z,10.83
2023-03-10T04:20:39.227Z,10.90
2023-03-10T04:23:05.619Z,10.89
2023-03-10T04:25:31.999Z,10.86
2023-03-10T04:27:58.470Z,10.85
2023-03-10T04:30:29.607Z,10.73
2023-03-10T04:33:00.306Z,10.64
2023-03-10T04:35:27.248Z,10.64
2023-03-10T04:37:54.068Z,10.72
2023-03-10T04:40:21.015Z,10.72
2023-03-10T04:42:47.402Z,10.57
2023-03-10T04:45:13.836Z,10.49
2023-03-10T04:47:40.378Z,10.49
2023-03-10T04:50:07.614Z,10.50
2023-03-10T04:52:34.015Z,10.48
2023-03-10T04:55:00.439Z,10.53
2023-03-10T04:57:27.374Z,10.48
2023-03-10T04:59:53.795Z,10.45
2023-03-10T05:02:20.241Z,10.40
2023-03-10T05:04:46.654Z,10.42
2023-03-10T05:07:13.000Z,10.46
2023-03-10T05:09:39.655Z,10.43
2023-03-10T05:12:06.993Z,10.33
2023-03-10T05:14:33.478Z,10.37
2023-03-10T05:16:59.808Z,10.27
2023-03-10T05:19:26.217Z,10.23
2023-03-10T05:21:53.310Z,10.23
2023-03-10T05:24:19.817Z,10.22
2023-03-10T05:26:46.311Z,10.23
2023-03-10T05:29:12.721Z,10.20
2023-03-10T05:31:39.303Z,10.25
2023-03-10T05:34:05.745Z,10.29
2023-03-10T05:36:32.122Z,10.27
2023-03-10T05:38:58.779Z,10.24
2023-03-10T05:41:25.308Z,10.20
2023-03-10T05:43:51.700Z,10.23
2023-03-10T05:46:18.085Z,10.22
2023-03-10T05:48:44.484Z,10.23
2023-03-10T05:51:12.886Z,10.18
2023-03-10T05:53:39.847Z,10.16
2023-03-10T05:56:12.321Z,10.19
2023-03-10T05:58:39.800Z,10.16
2023-03-10T06:01:07.066Z,10.12
2023-03-10T06:03:34.500Z,10.13
2023-03-10T06:06:01.461Z,10.09
2023-03-10T06:08:28.263Z,10.11
2023-03-10T06:10:55.163Z,10.09
2023-03-10T06:13:21.608Z,10.13
2023-03-10T06:15:53.214Z,10.15
2023-03-10T06:18:20.129Z,10.17
2023-03-10T06:20:47.865Z,10.26
2023-03-10T06:23:15.515Z,10.32
2023-03-10T06:25:42.093Z,10.36
2023-03-10T06:28:09.778Z,10.41
2023-03-10T06:30:36.329Z,10.45
2023-03-10T06:33:03.438Z,10.47
2023-03-10T06:35:31.826Z,10.44
2023-03-10T06:37:58.246Z,10.39
2023-03-10T06:40:24.670Z,10.46
2023-03-10T06:42:51.112Z,10.50
2023-03-10T06:45:17.599Z,10.37
2023-03-10T06:47:44.554Z,10.35
2023-03-10T06:50:12.499Z,10.41
2023-03-10T06:52:39.222Z,10.41
2023-03-10T06:55:06.909Z,10.40
2023-03-10T06:57:33.863Z,10.42
2023-03-10T07:00:00.203Z,10.42
2023-03-10T07:02:26.695Z,10.43
2023-03-10T07:04:53.189Z,10.43
2023-03-10T07:07:20.027Z,10.47
2023-03-10T07:09:46.526Z,10.45
2023-03-10T07:12:12.976Z,10.44
2023-03-10T07:14:39.483Z,10.44
2023-03-10T07:17:05.976Z,10.50
2023-03-10T07:19:32.675Z,10.45
2023-03-10T07:21:59.064Z,10.51
2023-03-10T07:24:25.557Z,10.50
2023-03-10T07:26:52.357Z,10.49
2023-03-10T07:29:18.818Z,10.38
2023-03-10T07:31:45.272Z,10.35
2023-03-10T07:34:11.869Z,10.34
2023-03-10T07:36:38.264Z,10.31
2023-03-10T07:39:04.705Z,10.30
2023-03-10T07:41:31.117Z,10.31
2023-03-10T07:43:57.461Z,10.35
2023-03-10T07:46:23.881Z,10.37
2023-03-10T07:48:52.668Z,10.37
2023-03-10T07:51:20.073Z,10.35
2023-03-10T07:53:46.422Z,10.36
2023-03-10T07:56:14.480Z,10.32
2023-03-10T07:58:41.398Z,10.29
2023-03-10T08:01:08.991Z,10.36
2023-03-10T08:03:35.990Z,10.40
2023-03-10T08:06:05.422Z,10.43
2023-03-10T08:08:31.997Z,10.53
2023-03-10T08:11:04.156Z,10.54
2023-03-10T08:13:31.825Z,10.61
2023-03-10T08:16:01.042Z,10.65
2023-03-10T08:18:29.442Z,10.78
2023-03-10T08:20:56.805Z,10.98
2023-03-10T08:23:24.144Z,11.16
2023-03-10T08:25:51.051Z,11.21
2023-03-10T08:28:17.440Z,11.26
2023-03-10T08:31:02.518Z,11.23
2023-03-10T08:33:30.630Z,11.26
2023-03-10T08:36:13.908Z,11.26
2023-03-10T08:38:41.173Z,11.27
2023-03-10T08:41:11.234Z,11.29
2023-03-10T08:43:38.396Z,11.30
2023-03-10T08:46:08.320Z,11.45
2023-03-10T08:48:35.382Z,11.59
2023-03-10T08:51:01.913Z,11.68
2023-03-10T08:53:28.472Z,11.71
2023-03-10T08:55:54.872Z,11.82
2023-03-10T08:58:21.395Z,11.90
2023-03-10T09:00:48.662Z,12.01
2023-03-10T09:03:15.655Z,12.00
2023-03-10T09:05:42.188Z,12.07
2023-03-10T09:08:08.610Z,12.15
2023-03-10T09:10:37.081Z,12.19
2023-03-10T09:13:13.351Z,12.24
2023-03-10T09:15:41.295Z,12.28
2023-03-10T09:18:09.310Z,12.35
2023-03-10T09:20:36.599Z,12.36
2023-03-10T09:23:03.607Z,12.42
2023-03-10T09:25:29.993Z,12.41
2023-03-10T09:27:56.495Z,12.49
2023-03-10T09:30:26.096Z,12.60
2023-03-10T09:32:52.865Z,12.67
2023-03-10T09:35:19.564Z,12.70
2023-03-10T09:37:45.965Z,12.64
2023-03-10T09:40:18.656Z,12.65
2023-03-10T09:42:46.805Z,12.67
2023-03-10T09:45:20.343Z,12.74
2023-03-10T09:48:03.738Z,12.75
2023-03-10T09:50:43.759Z,12.73
2023-03-10T09:53:23.172Z,12.84
2023-03-10T09:55:49.584Z,12.86
2023-03-10T09:58:34.858Z,12.85
2023-03-10T10:01:03.226Z,12.84
2023-03-10T10:03:57.939Z,12.85
2023-03-10T10:06:28.979Z,12.86
2023-03-10T10:09:05.317Z,12.94
2023-03-10T10:11:33.339Z,13.02
2023-03-10T10:14:22.468Z,13.19
2023-03-10T10:17:01.956Z,13.25
2023-03-10T10:19:29.117Z,13.34
2023-03-10T10:22:21.509Z,13.44
2023-03-10T10:25:01.140Z,13.31
2023-03-10T10:27:27.516Z,13.34
2023-03-10T10:29:54.130Z,13.36
2023-03-10T10:32:20.565Z,13.40
2023-03-10T10:34:47.408Z,13.47
2023-03-10T10:37:24.418Z,13.56
2023-03-10T10:39:52.416Z,13.46
2023-03-10T10:42:34.265Z,13.49
2023-03-10T10:45:02.360Z,13.46
2023-03-10T10:47:35.011Z,13.44
2023-03-10T10:50:31.578Z,13.24
2023-03-10T10:53:19.397Z,13.20
2023-03-10T10:55:48.112Z,13.19
2023-03-10T10:58:35.763Z,13.14
2023-03-10T11:01:06.116Z,13.06
2023-03-10T11:03:38.970Z,12.99
2023-03-10T11:06:13.398Z,12.99
2023-03-10T11:08:42.998Z,12.99
2023-03-10T11:11:18.680Z,13.08
2023-03-10T11:14:11.508Z,13.06
2023-03-10T11:17:07.299Z,12.99
2023-03-10T11:19:56.296Z,13.01
2023-03-10T11:22:36.901Z,12.96
2023-03-10T11:25:37.626Z,12.85
2023-03-10T11:28:16.262Z,12.68
2023-03-10T11:31:05.686Z,12.48
2023-03-10T11:33:43.532Z,12.36
2023-03-10T11:36:49.758Z,12.30
2023-03-10T11:39:24.420Z,12.13
2023-03-10T11:42:00.904Z,12.08
2023-03-10T11:44:41.353Z,12.00
2023-03-10T11:47:32.579Z,12.02
2023-03-10T11:50:20.600Z,11.94
2023-03-10T11:52:49.209Z,11.92
2023-03-10T11:55:20.177Z,11.85
2023-03-10T11:57:50.070Z,11.77
2023-03-10T12:00:43.944Z,11.67
2023-03-10T12:03:19.518Z,11.61
2023-03-10T12:05:52.069Z,11.58
2023-03-10T12:08:21.156Z,11.51
2023-03-10T12:10:49.851Z,11.38
2023-03-10T12:13:44.507Z,11.43
2023-03-10T12:16:17.274Z,11.34
2023-03-10T12:18:43.929Z,11.38
2023-03-10T12:21:25.444Z,11.36
2023-03-10T12:23:54.117Z,11.31
2023-03-10T12:26:38.867Z,11.40
2023-03-10T12:29:17.360Z,11.29
2023-03-10T12:31:46.000Z,11.26
2023-03-10T12:34:17.427Z,11.30
2023-03-10T12:36:46.615Z,11.39
2023-03-10T12:39:24.954Z,11.46
2023-03-10T12:42:26.904Z,11.50
2023-03-10T12:45:00.780Z,11.53
2023-03-10T12:47:52.732Z,11.48
2023-03-10T12:50:43.617Z,11.49
2023-03-10T12:53:35.906Z,11.44
2023-03-10T12:56:14.527Z,11.43
2023-03-10T12:58:52.905Z,11.51
2023-03-10T13:01:24.173Z,11.55
2023-03-10T13:03:57.016Z,11.44
2023-03-10T13:06:33.318Z,11.41
2023-03-10T13:09:43.569Z,11.33
2023-03-10T13:12:26.296Z,11.34
2023-03-10T13:14:56.487Z,11.23
2023-03-10T13:17:31.145Z,11.25
2023-03-10T13:20:00.090Z,11.25
2023-03-10T13:22:28.239Z,11.25
2023-03-10T13:25:04.225Z,11.17
2023-03-10T13:27:33.247Z,11.16
2023-03-10T13:30:05.530Z,11.17
2023-03-10T13:32:33.117Z,11.14
2023-03-10T13:35:12.433Z,11.16
2023-03-10T13:37:38.903Z,11.05
2023-03-10T13:40:10.857Z,10.98
2023-03-10T13:42:44.235Z,10.79
2023-03-10T13:45:22.310Z,10.81
2023-03-10T13:47:50.527Z,10.82
2023-03-10T13:50:17.808Z,10.79
2023-03-10T13:52:57.298Z,10.87
2023-03-10T13:55:24.101Z,10.96
2023-03-10T13:57:51.341Z,10.90
2023-03-10T14:00:20.670Z,10.80
2023-03-10T14:02:49.745Z,10.73
2023-03-10T14:05:37.769Z,10.67
2023-03-10T14:08:05.335Z,10.57
2023-03-10T14:10:31.881Z,10.46
2023-03-10T14:12:58.277Z,10.32
2023-03-10T14:15:38.075Z,10.30
2023-03-10T14:18:07.292Z,10.19
2023-03-10T14:20:39.468Z,10.17
2023-03-10T14:23:18.008Z,10.12
2023-03-10T14:25:49.065Z,10.04
2023-03-10T14:28:24.960Z,9.97
2023-03-10T14:30:51.625Z,10.00
2023-03-10T14:33:18.056Z,9.92
2023-03-10T14:35:46.098Z,9.91
2023-03-10T14:38:12.665Z,9.88
2023-03-10T14:40:45.310Z,9.88
2023-03-10T14:43:20.350Z,9.84
2023-03-10T14:45:49.312Z,9.84
2023-03-10T14:48:18.717Z,9.85
2023-03-10T14:50:46.508Z,9.78
2023-03-10T14:53:21.325Z,9.68
2023-03-10T14:55:50.655Z,9.70
2023-03-10T14:58:21.773Z,9.68
2023-03-10T15:00:49.260Z,9.66
2023-03-10T15:03:16.162Z,9.66
2023-03-10T15:05:48.612Z,9.67
2023-03-10T15:08:16.571Z,9.61
2023-03-10T15:10:47.952Z,9.58
2023-03-10T15:13:16.603Z,9.57
2023-03-10T15:15:45.084Z,9.43
2023-03-10T15:18:13.662Z,9.35
2023-03-10T15:20:40.926Z,9.27
2023-03-10T15:23:08.374Z,9.33
2023-03-10T15:25:34.901Z,9.18
2023-03-10T15:28:01.396Z,9.10
2023-03-10T15:30:31.562Z,9.12
2023-03-10T15:32:58.075Z,9.09
2023-03-10T15:35:25.748Z,9.04
2023-03-10T15:37:52.770Z,8.90
2023-03-10T15:40:22.222Z,8.92
2023-03-10T15:42:48.914Z,8.88
2023-03-10T15:45:18.186Z,8.83
2023-03-10T15:47:46.014Z,8.82
2023-03-10T15:50:13.754Z,8.81
2023-03-10T15:52:40.225Z,8.79
2023-03-10T15:55:07.039Z,8.75
2023-03-10T15:57:33.540Z,8.76
2023-03-10T16:00:00.039Z,8.76
2023-03-10T16:02:26.441Z,8.71
2023-03-10T16:04:52.899Z,8.73
2023-03-10T16:07:19.338Z,8.73
2023-03-10T16:09:47.385Z,8.77
2023-03-10T16:12:13.750Z,8.72
2023-03-10T16:14:40.136Z,8.70
2023-03-10T16:17:06.542Z,8.66
2023-03-10T16:19:33.380Z,8.64
2023-03-10T16:21:59.857Z,8.59
2023-03-10T16:24:26.297Z,8.58
2023-03-10T16:26:52.644Z,8.56
2023-03-10T16:29:19.852Z,8.49
2023-03-10T16:31:46.490Z,8.45
2023-03-10T16:34:13.086Z,8.46
2023-03-10T16:36:39.600Z,8.44
2023-03-10T16:39:10.163Z,8.34
2023-03-10T16:41:36.892Z,8.30
2023-03-10T16:44:08.406Z,7.98
2023-03-10T16:46:34.867Z,7.59
2023-03-10T16:49:01.926Z,7.07
2023-03-10T16:51:32.762Z,6.82
2023-03-10T16:54:01.454Z,6.57
2023-03-10T16:56:29.745Z,6.42
2023-03-10T16:58:57.437Z,6.36
2023-03-10T17:01:24.820Z,6.14
2023-03-10T17:03:52.728Z,6.00
2023-03-10T17:06:22.706Z,5.62
2023-03-10T17:08:50.606Z,5.20
2023-03-10T17:11:26.586Z,4.88
2023-03-10T17:13:55.485Z,4.69
2023-03-10T17:16:24.347Z,4.31
2023-03-10T17:18:50.893Z,4.14
2023-03-10T17:21:23.449Z,4.05
2023-03-10T17:23:50.478Z,3.89
2023-03-10T17:26:18.084Z,3.57
2023-03-10T17:28:46.996Z,3.56
2023-03-10T17:31:26.297Z,3.51
2023-03-10T17:33:58.738Z,3.47
2023-03-10T17:36:25.898Z,3.43
2023-03-10T17:38:54.076Z,3.47
2023-03-10T17:41:21.358Z,3.43
2023-03-10T17:43:48.393Z,3.38
2023-03-10T17:46:20.910Z,3.19
2023-03-10T17:48:47.785Z,3.16
2023-03-10T17:51:16.840Z,3.10
2023-03-10T17:53:44.269Z,3.09
2023-03-10T17:56:11.483Z,3.09
2023-03-10T17:58:38.155Z,3.07
2023-03-10T18:01:11.846Z,2.95
2023-03-10T18:03:38.508Z,3.02
2023-03-10T18:06:11.556Z,2.89
2023-03-10T18:08:38.018Z,2.87
2023-03-10T18:11:05.379Z,2.93
2023-03-10T18:13:32.652Z,2.87
2023-03-10T18:15:59.120Z,2.98
2023-03-10T18:18:25.979Z,3.02
2023-03-10T18:20:52.446Z,2.89
2023-03-10T18:23:21.884Z,3.00
2023-03-10T18:25:48.734Z,3.04
2023-03-10T18:28:18.018Z,3.05
2023-03-10T18:30:45.871Z,3.08
2023-03-10T18:33:12.522Z,3.03
2023-03-10T18:35:40.832Z,2.98
2023-03-10T18:38:07.671Z,2.91
2023-03-10T18:40:34.192Z,2.94
2023-03-10T18:43:00.620Z,2.95
2023-03-10T18:45:27.036Z,2.92
2023-03-10T18:47:53.457Z,2.94
2023-03-10T18:50:19.929Z,2.95
2023-03-10T18:52:46.453Z,2.97
2023-03-10T18:55:13.481Z,2.98
2023-03-10T18:57:40.254Z,2.93
2023-03-10T19:00:08.150Z,2.87
2023-03-10T19:02:37.824Z,2.80
2023-03-10T19:05:05.240Z,2.69
2023-03-10T19:07:33.527Z,2.81
2023-03-10T19:10:00.229Z,2.80
2023-03-10T19:12:28.546Z,2.80
2023-03-10T19:15:06.664Z,2.81
2023-03-10T19:17:33.570Z,2.93
2023-03-10T19:20:00.152Z,2.94
2023-03-10T19:22:26.685Z,2.95
2023-03-10T19:24:53.216Z,2.92
2023-03-10T19:27:19.687Z,2.86
2023-03-10T19:29:53.449Z,2.95
2023-03-10T19:32:20.742Z,3.01
2023-03-10T19:34:47.329Z,3.01
2023-03-10T19:37:14.064Z,3.02
2023-03-10T19:39:41.052Z,3.05
2023-03-10T19:42:07.556Z,3.03
2023-03-10T19:44:34.315Z,3.04
2023-03-10T19:47:00.859Z,2.97
2023-03-10T19:49:27.243Z,2.92
2023-03-10T19:51:53.671Z,2.92
2023-03-10T19:54:20.016Z,2.93
2023-03-10T19:56:46.468Z,2.93
2023-03-10T19:59:12.897Z,2.92
2023-03-10T20:01:40.297Z,2.94
2023-03-10T20:04:06.925Z,2.98
2023-03-10T20:06:33.366Z,2.92
2023-03-10T20:08:59.768Z,2.82
2023-03-10T20:11:26.189Z,2.76
2023-03-10T20:13:53.930Z,2.77
2023-03-10T20:16:22.570Z,2.78
2023-03-10T20:18:48.994Z,2.77
2023-03-10T20:21:16.485Z,2.72
2023-03-10T20:23:47.337Z,2.78
2023-03-10T20:26:15.434Z,2.90
2023-03-10T20:28:41.905Z,2.88
2023-03-10T20:31:09.353Z,2.78
2023-03-10T20:33:36.665Z,2.78
2023-03-10T20:36:03.230Z,2.65
2023-03-10T20:38:29.643Z,2.70
2023-03-10T20:40:56.048Z,2.75
2023-03-10T20:43:22.494Z,2.73
2023-03-10T20:45:51.637Z,2.72
2023-03-10T20:48:18.185Z,2.77
2023-03-10T20:50:44.559Z,2.82
2023-03-10T20:53:10.905Z,2.81
2023-03-10T20:55:37.629Z,2.79
2023-03-10T20:58:04.277Z,2.77
2023-03-10T21:00:30.854Z,2.76
2023-03-10T21:02:58.100Z,2.83
2023-03-10T21:05:26.123Z,2.75
2023-03-10T21:07:52.980Z,2.78
2023-03-10T21:10:20.469Z,2.78
2023-03-10T21:12:46.934Z,2.80
2023-03-10T21:15:16.189Z,2.78
2023-03-10T21:17:43.440Z,2.78
2023-03-10T21:20:11.898Z,2.76
2023-03-10T21:22:39.856Z,2.81
2023-03-10T21:25:08.915Z,2.73
2023-03-10T21:27:35.727Z,2.75
2023-03-10T21:30:04.890Z,2.77
2023-03-10T21:32:32.634Z,2.70
2023-03-10T21:34:59.078Z,2.55
2023-03-10T21:37:25.631Z,2.56
2023-03-10T21:39:53.864Z,2.67
2023-03-10T21:42:20.299Z,2.72
2023-03-10T21:44:48.125Z,2.72
2023-03-10T21:47:14.617Z,2.73
2023-03-10T21:49:41.049Z,2.74
2023-03-10T21:52:08.979Z,2.76
2023-03-10T21:54:35.386Z,2.68
2023-03-10T21:57:01.795Z,2.61
2023-03-10T21:59:28.218Z,2.62
2023-03-10T22:01:54.579Z,2.58
2023-03-10T22:04:20.997Z,2.53
2023-03-10T22:06:47.477Z,2.53
2023-03-10T22:09:14.327Z,2.59
2023-03-10T22:11:40.888Z,2.69
2023-03-10T22:14:07.405Z,2.61
2023-03-10T22:16:33.756Z,2.62
2023-03-10T22:19:00.195Z,2.53
2023-03-10T22:21:26.600Z,2.49
2023-03-10T22:23:53.089Z,2.46
2023-03-10T22:26:19.621Z,2.36
2023-03-10T22:28:46.063Z,2.37
2023-03-10T22:31:12.431Z,2.48
2023-03-10T22:33:39.259Z,2.50
2023-03-10T22:36:09.046Z,2.53
2023-03-10T22:38:35.827Z,2.53
2023-03-10T22:41:02.371Z,2.47
2023-03-10T22:43:29.093Z,2.43
2023-03-10T22:45:59.064Z,2.45
2023-03-10T22:48:25.534Z,2.45
2023-03-10T22:50:51.918Z,2.46
2023-03-10T22:53:20.682Z,2.53
2023-03-10T22:55:48.386Z,2.62
2023-03-10T22:58:16.115Z,2.63
2023-03-10T23:00:42.791Z,2.58
2023-03-10T23:03:11.664Z,2.55
2023-03-10T23:05:38.360Z,2.52
2023-03-10T23:08:05.604Z,2.58
2023-03-10T23:10:34.070Z,2.64
2023-03-10T23:13:03.117Z,2.59
2023-03-10T23:15:33.482Z,2.54
2023-03-10T23:18:00.277Z,2.55
2023-03-10T23:20:30.390Z,2.50
2023-03-10T23:22:59.269Z,2.53
2023-03-10T23:25:32.470Z,2.63
2023-03-10T23:27:59.372Z,2.67
2023-03-10T23:30:26.544Z,2.72
2023-03-10T23:32:53.620Z,2.65
2023-03-10T23:35:23.096Z,2.70
2023-03-10T23:37:50.135Z,2.68
2023-03-10T23:40:19.003Z,2.65
2023-03-10T23:42:45.957Z,2.70
2023-03-10T23:45:15.489Z,2.73
2023-03-10T23:47:42.767Z,2.77
2023-03-10T23:50:17.051Z,2.81
2023-03-10T23:52:43.977Z,2.74
2023-03-10T23:55:26.738Z,2.77
2023-03-10T23:57:53.197Z,2.82
